Time,TemperatureF,DewpointF,PressureIn,WindDirection,WindDirectionDegrees,WindSpeedMPH,WindSpeedGustMPH,Humidity,HourlyPrecipIn,Conditions,Clouds,dailyrainin,SoftwareType,DateUTC
2013-09-19 00:02:00,42.0,26.0,-100.00,North,-999,0.0,-999.0,52,0.00,,,0.01,,2013-09-19 06:02:00,
2013-09-19 00:12:00,42.0,26.0,-100.00,North,-999,0.0,-999.0,52,0.00,,,0.01,,2013-09-19 06:12:00,
2013-09-19 00:52:00,42.0,28.0,-100.00,North,-999,0.0,-999.0,58,0.00,,,0.01,,2013-09-19 06:52:00,
2013-09-19 01:02:00,42.0,28.0,-100.00,North,-999,0.0,-999.0,58,0.00,,,0.01,,2013-09-19 07:02:00,
2013-09-19 01:11:00,42.0,28.0,-100.00,North,-999,0.0,-999.0,58,0.00,,,0.01,,2013-09-19 07:11:00,
2013-09-19 01:52:00,37.0,27.0,-100.00,North,-999,0.0,-999.0,67,0.00,,,0.01,,2013-09-19 07:52:00,
2013-09-19 02:02:00,37.0,27.0,-100.00,North,-999,0.0,-999.0,67,0.00,,,0.01,,2013-09-19 08:02:00,
2013-09-19 02:11:00,37.0,27.0,-100.00,North,-999,0.0,-999.0,67,0.00,,,0.01,,2013-09-19 08:11:00,
2013-09-19 02:52:00,37.0,28.0,-100.00,North,-999,0.0,-999.0,71,0.00,,,0.01,,2013-09-19 08:52:00,
2013-09-19 03:02:00,37.0,28.0,-100.00,North,-999,0.0,-999.0,71,0.00,,,0.01,,2013-09-19 09:02:00,
2013-09-19 03:11:00,37.0,28.0,-100.00,North,-999,0.0,-999.0,71,0.00,,,0.01,,2013-09-19 09:11:00,
2013-09-19 03:53:00,35.0,29.0,-100.00,North,-999,0.0,-999.0,79,0.00,,,0.01,,2013-09-19 09:53:00,
2013-09-19 04:03:00,35.0,29.0,-100.00,North,-999,0.0,-999.0,79,0.00,,,0.01,,2013-09-19 10:03:00,
2013-09-19 04:12:00,35.0,29.0,-100.00,North,-999,0.0,-999.0,79,0.00,,,0.01,,2013-09-19 10:12:00,
2013-09-19 04:52:00,35.0,29.0,-100.00,North,-999,0.0,-999.0,77,0.00,,,0.01,,2013-09-19 10:52:00,
2013-09-19 05:03:00,35.0,29.0,-100.00,North,-999,0.0,-999.0,77,0.00,,,0.01,,2013-09-19 11:03:00,
2013-09-19 05:11:00,35.0,29.0,-100.00,North,-999,0.0,-999.0,77,0.00,,,0.01,,2013-09-19 11:11:00,
2013-09-19 05:52:00,32.0,28.0,-100.00,North,-999,0.0,-999.0,85,0.00,,,0.01,,2013-09-19 11:52:00,
2013-09-19 06:01:00,32.0,28.0,-100.00,North,-999,0.0,-999.0,85,0.00,,,0.01,,2013-09-19 12:01:00,
2013-09-19 06:11:00,32.0,28.0,-100.00,North,-999,0.0,-999.0,85,0.00,,,0.01,,2013-09-19 12:11:00,
2013-09-19 06:52:00,33.0,28.0,-100.00,North,-999,0.0,-999.0,82,0.00,,,0.01,,2013-09-19 12:52:00,
2013-09-19 07:02:00,33.0,28.0,-100.00,North,-999,0.0,-999.0,82,0.00,,,0.01,,2013-09-19 13:02:00,
2013-09-19 07:11:00,33.0,28.0,-100.00,North,-999,0.0,-999.0,82,0.00,,,0.01,,2013-09-19 13:11:00,
2013-09-19 07:52:00,31.0,28.0,-100.00,North,-999,0.0,-999.0,88,0.00,,,0.01,,2013-09-19 13:52:00,
2013-09-19 08:02:00,31.0,28.0,-100.00,North,-999,0.0,-999.0,88,0.00,,,0.01,,2013-09-19 14:02:00,
2013-09-19 08:12:00,31.0,28.0,-100.00,North,-999,0.0,-999.0,88,0.00,,,0.01,,2013-09-19 14:12:00,
2013-09-19 08:52:00,30.0,27.0,-100.00,North,-999,0.0,-999.0,90,0.00,,,0.01,,2013-09-19 14:52:00,
2013-09-19 09:01:00,30.0,27.0,-100.00,North,-999,0.0,-999.0,90,0.00,,,0.01,,2013-09-19 15:01:00,
2013-09-19 10:52:00,41.0,30.0,-100.00,North,-999,0.0,-999.0,65,0.00,,,-99.99,,2013-09-19 16:52:00,
2013-09-19 11:03:00,41.0,30.0,-100.00,North,-999,0.0,-999.0,65,0.00,,,-99.99,,2013-09-19 17:03:00,
2013-09-19 11:53:00,47.0,32.0,-100.00,North,-999,0.0,-999.0,56,0.00,,,-99.99,,2013-09-19 17:53:00,
2013-09-19 12:02:00,47.0,32.0,-100.00,North,-999,0.0,-999.0,56,0.00,,,-99.99,,2013-09-19 18:02:00,
2013-09-19 12:11:00,47.0,32.0,-100.00,North,-999,0.0,-999.0,56,0.00,,,-99.99,,2013-09-19 18:11:00,
2013-09-19 12:52:00,53.0,31.0,-100.00,North,-999,0.0,-999.0,43,0.00,,,0.01,,2013-09-19 18:52:00,
2013-09-19 13:02:00,53.0,31.0,-100.00,North,-999,0.0,-999.0,43,0.00,,,0.01,,2013-09-19 19:02:00,
2013-09-19 13:12:00,53.0,31.0,-100.00,North,-999,0.0,-999.0,43,0.00,,,0.01,,2013-09-19 19:12:00,
2013-09-19 13:52:00,58.0,31.0,-100.00,North,-999,0.0,-999.0,36,0.00,,,0.00,,2013-09-19 19:52:00,
2013-09-19 14:02:00,58.0,31.0,-100.00,North,-999,0.0,-999.0,36,0.00,,,0.00,,2013-09-19 20:02:00,
2013-09-19 14:12:00,58.0,31.0,-100.00,North,-999,0.0,-999.0,36,0.00,,,0.00,,2013-09-19 20:12:00,
2013-09-19 14:52:00,62.0,33.0,-100.00,North,-999,0.0,-999.0,33,0.00,,,0.00,,2013-09-19 20:52:00,
2013-09-19 15:02:00,62.0,33.0,-100.00,North,-999,0.0,-999.0,33,0.00,,,0.00,,2013-09-19 21:02:00,
2013-09-19 15:11:00,62.0,33.0,-100.00,North,-999,0.0,-999.0,33,0.00,,,0.00,,2013-09-19 21:11:00,
2013-09-19 15:55:00,63.0,33.0,-100.00,North,-999,0.0,-999.0,32,0.00,,,0.00,,2013-09-19 21:55:00,
2013-09-19 16:04:00,63.0,33.0,-100.00,North,-999,0.0,-999.0,32,0.00,,,0.00,,2013-09-19 22:04:00,
2013-09-19 16:14:00,63.0,33.0,-100.00,North,-999,0.0,-999.0,32,0.00,,,0.00,,2013-09-19 22:14:00,
2013-09-19 16:53:00,65.0,30.0,-100.00,North,-999,0.0,-999.0,27,0.00,,,0.00,,2013-09-19 22:53:00,
2013-09-19 17:03:00,65.0,30.0,-100.00,North,-999,0.0,-999.0,27,0.00,,,0.00,,2013-09-19 23:03:00,
2013-09-19 17:12:00,65.0,30.0,-100.00,North,-999,0.0,-999.0,27,0.00,,,0.00,,2013-09-19 23:12:00,
2013-09-19 17:53:00,64.0,31.0,-100.00,North,-999,0.0,-999.0,29,0.00,,,0.00,,2013-09-19 23:53:00,
2013-09-19 18:02:00,64.0,31.0,-100.00,North,-999,0.0,-999.0,29,0.00,,,0.00,,2013-09-20 00:02:00,
2013-09-19 18:12:00,64.0,31.0,-100.00,North,-999,0.0,-999.0,29,0.00,,,0.00,,2013-09-20 00:12:00,
2013-09-19 18:52:00,62.0,33.0,-100.00,North,-999,0.0,-999.0,34,0.00,,,0.00,,2013-09-20 00:52:00,
2013-09-19 19:02:00,62.0,33.0,-100.00,North,-999,0.0,-999.0,34,0.00,,,0.00,,2013-09-20 01:02:00,
2013-09-19 19:12:00,62.0,33.0,-100.00,North,-999,0.0,-999.0,34,0.00,,,0.00,,2013-09-20 01:12:00,
2013-09-19 19:52:00,57.0,35.0,-100.00,North,-999,0.0,-999.0,43,0.00,,,0.00,,2013-09-20 01:52:00,
2013-09-19 20:02:00,57.0,35.0,-100.00,North,-999,0.0,-999.0,43,0.00,,,0.00,,2013-09-20 02:02:00,
2013-09-19 20:11:00,57.0,35.0,-100.00,North,-999,0.0,-999.0,43,0.00,,,0.00,,2013-09-20 02:11:00,
2013-09-19 20:52:00,53.0,35.0,-100.00,North,-999,0.0,-999.0,50,0.00,,,0.00,,2013-09-20 02:52:00,
2013-09-19 21:02:00,53.0,35.0,-100.00,North,-999,0.0,-999.0,50,0.00,,,0.00,,2013-09-20 03:02:00,
2013-09-19 21:12:00,53.0,35.0,-100.00,North,-999,0.0,-999.0,50,0.00,,,0.00,,2013-09-20 03:12:00,
2013-09-19 21:56:00,50.0,34.0,-100.00,North,-999,0.0,-999.0,54,0.00,,,0.00,,2013-09-20 03:56:00,
2013-09-19 22:05:00,50.0,34.0,-100.00,North,-999,0.0,-999.0,54,0.00,,,0.00,,2013-09-20 04:05:00,
2013-09-19 22:14:00,50.0,34.0,-100.00,North,-999,0.0,-999.0,54,0.00,,,0.00,,2013-09-20 04:14:00,
2013-09-19 22:54:00,44.0,35.0,-100.00,North,-999,0.0,-999.0,70,0.00,,,0.00,,2013-09-20 04:54:00,
2013-09-19 23:03:00,44.0,35.0,-100.00,North,-999,0.0,-999.0,70,0.00,,,0.00,,2013-09-20 05:03:00,
2013-09-19 23:13:00,44.0,35.0,-100.00,North,-999,0.0,-999.0,70,0.00,,,0.00,,2013-09-20 05:13:00,
2013-09-19 23:53:00,42.0,34.0,-100.00,North,-999,0.0,-999.0,72,0.00,,,0.00,,2013-09-20 05:53:00,